Meteorología y climatología de Navarra
Datos de la estación - Meteo Navarra

Estación de Carrascal GN

Altitud 568 m.


Datos desde el 11/01/2019 hasta el 12/01/2019 en horario solar
Los datos son PROVISIONALES

Anterior Página 1 de 1 Siguiente Descargar: Formato para Excel 2000 o superior   Formato csv   Formato para OpenOffice Calc
Fecha Temperatura Humedad relativa Radiación global Insolación Precipitación Velocidad viento 10 m Velocidad viento 10 m Dirección viento 10 m
ºC % W/m² s l/m² m/s km/h º
11/01/2019 0:00 -1.3 74 0.0 0 0.0 8.6 31.0 18
11/01/2019 0:10 -1.4 74 0.0 0 0.0 7.6 27.5 22
11/01/2019 0:20 -1.5 75 0.0 0 0.0 6.8 24.6 23
11/01/2019 0:30 -1.6 75 0.0 0 0.0 6.2 22.5 24
11/01/2019 0:40 -1.4 76 0.0 0 0.0 6.8 24.5 24
11/01/2019 0:50 -1.5 77 0.0 0 0.0 7.3 26.3 25
11/01/2019 1:00 -1.2 76 0.0 0 0.0 7.7 27.8 20
11/01/2019 1:10 -1.2 76 0.0 0 0.0 7.7 27.8 16
11/01/2019 1:20 -1.2 75 0.0 0 0.0 8.4 30.1 13
11/01/2019 1:30 -1.0 76 0.0 0 0.0 9.6 34.5 8
11/01/2019 1:40 -0.9 76 0.0 0 0.0 9.5 34.3 9
11/01/2019 1:50 -1.2 77 0.0 0 0.0 8.9 32.1 11
11/01/2019 2:00 -1.3 77 0.0 0 0.0 10.1 36.2 8
11/01/2019 2:10 -1.1 77 0.0 0 0.0 10.5 37.8 9
11/01/2019 2:20 -1.2 78 0.0 0 0.0 9.7 34.8 12
11/01/2019 2:30 -1.2 78 0.0 0 0.0 9.1 32.7 13
11/01/2019 2:40 -1.4 78 0.0 0 0.0 10.6 38.1 10
11/01/2019 2:50 -1.1 77 0.0 0 0.0 10.5 37.8 7
11/01/2019 3:00 -1.4 77 0.0 0 0.0 10.3 36.9 8
11/01/2019 3:10 -1.4 77 0.0 0 0.0 10.6 38.1 9
11/01/2019 3:20 -1.6 75 0.0 0 0.0 9.5 34.3 12
11/01/2019 3:30 -1.7 75 0.0 0 0.0 8.9 32.1 11
11/01/2019 3:40 -2.0 76 0.0 0 0.0 6.7 24.3 13
11/01/2019 3:50 -2.1 78 0.0 0 0.0 5.5 19.7 18
11/01/2019 4:00 -2.0 78 0.0 0 0.0 5.5 19.8 18
11/01/2019 4:10 -2.1 76 0.0 0 0.0 5.5 19.7 30
11/01/2019 4:20 -2.3 77 0.0 0 0.0 4.9 17.5 30
11/01/2019 4:30 -2.3 75 0.0 0 0.0 5.0 18.0 27
11/01/2019 4:40 -2.3 75 0.0 0 0.0 5.2 18.8 26
11/01/2019 4:50 -2.3 73 0.0 0 0.0 5.7 20.4 25
11/01/2019 5:00 -2.4 74 0.0 0 0.0 5.9 21.3 28
11/01/2019 5:10 -2.2 73 0.0 0 0.0 6.9 25.0 31
11/01/2019 5:20 -2.2 73 0.0 0 0.0 7.4 26.5 29
11/01/2019 5:30 -2.1 73 0.0 0 0.0 8.3 29.8 31
11/01/2019 5:40 -2.2 74 0.0 0 0.0 9.0 32.5 33
11/01/2019 5:50 -2.2 75 0.0 0 0.0 9.1 32.8 34
11/01/2019 6:00 -2.1 75 0.0 0 0.0 9.1 32.9 33
11/01/2019 6:10 -2.1 75 0.0 0 0.0 9.2 33.2 33
11/01/2019 6:20 -2.2 76 0.0 0 0.0 9.4 33.7 32
11/01/2019 6:30 -2.2 76 0.0 0 0.0 9.4 33.8 26
11/01/2019 6:40 -2.0 75 0.0 0 0.0 10.3 37.0 22
11/01/2019 6:50 -1.8 75 0.0 0 0.0 10.4 37.4 21
11/01/2019 7:00 -2.0 74 0.0 0 0.0 10.4 37.4 20
11/01/2019 7:10 -1.9 75 0.0 0 0.0 10.1 36.3 18
11/01/2019 7:20 -2.0 75 0.0 0 0.0 9.8 35.3 19
11/01/2019 7:30 -1.9 75 0.0 0 0.0 9.5 34.0 19
11/01/2019 7:40 -2.0 76 0.0 0 0.0 8.7 31.4 16
11/01/2019 7:50 -2.0 77 0.0 0 0.0 8.8 31.6 17
11/01/2019 8:00 -2.0 77 0.0 0 0.0 8.8 31.7 17
11/01/2019 8:10 -1.9 77 4.6 0 0.0 9.4 33.8 18
11/01/2019 8:20 -2.0 76 38.8 192 0.0 8.9 32.2 18
11/01/2019 8:30 -1.6 76 82.8 562 0.0 8.8 31.5 17
11/01/2019 8:40 -1.5 74 111.9 600 0.0 9.5 34.2 12
11/01/2019 8:50 -1.1 73 135.9 600 0.0 9.7 34.8 17
11/01/2019 9:00 -0.8 72 161.7 600 0.0 10.8 38.7 13
11/01/2019 9:10 -0.5 72 185.3 600 0.0 10.2 36.7 16
11/01/2019 9:20 -0.1 71 212.6 600 0.0 11.3 40.8 14
11/01/2019 9:30 0.2 71 238.7 600 0.0 11.4 40.9 15
11/01/2019 9:40 0.4 71 255.1 600 0.0 11.5 41.5 19
11/01/2019 9:50 0.5 71 267.3 600 0.0 11.7 42.0 19
11/01/2019 10:00 0.8 68 292.9 596 0.0 12.6 45.3 20
11/01/2019 10:10 1.0 66 316.8 594 0.0 12.7 45.8 19
11/01/2019 10:20 1.1 65 340.8 600 0.0 12.7 45.7 18
11/01/2019 10:30 1.4 63 364.5 600 0.0 12.2 43.7 21
11/01/2019 10:40 1.7 62 355.8 600 0.0 11.9 42.7 17
11/01/2019 10:50 1.8 60 383.2 600 0.0 12.7 45.6 18
11/01/2019 11:00 2.1 58 400.0 600 0.0 12.4 44.7 22
11/01/2019 11:10 2.2 57 417.7 600 0.0 12.5 45.1 17
11/01/2019 11:20 2.4 55 429.8 600 0.0 13.0 46.8 21
11/01/2019 11:30 2.5 54 438.4 600 0.0 12.9 46.4 17
11/01/2019 11:40 2.7 55 449.3 600 0.0 11.1 39.9 16
11/01/2019 11:50 2.8 55 453.5 600 0.0 10.6 38.2 18
11/01/2019 12:00 3.2 55 457.5 600 0.0 10.8 38.7 12
11/01/2019 12:10 2.9 54 415.5 532 0.0 11.8 42.4 0
11/01/2019 12:20 3.1 53 317.6 370 0.0 11.5 41.4 356
11/01/2019 12:30 3.3 53 442.3 560 0.0 11.5 41.4 1
11/01/2019 12:40 3.2 51 436.2 562 0.0 11.7 42.3 1
11/01/2019 12:50 3.2 50 448.4 600 0.0 12.4 44.6 4
11/01/2019 13:00 3.3 49 441.6 600 0.0 12.5 44.9 5
11/01/2019 13:10 3.4 48 435.1 600 0.0 13.0 46.6 7
11/01/2019 13:20 3.2 48 426.0 600 0.0 13.2 47.5 6
11/01/2019 13:30 3.1 48 416.1 600 0.0 13.7 49.2 7
11/01/2019 13:40 3.4 48 405.1 600 0.0 14.1 50.7 6
11/01/2019 13:50 3.3 48 392.9 600 0.0 14.2 51.2 6
11/01/2019 14:00 3.3 48 379.2 600 0.0 15.6 56.1 7
11/01/2019 14:10 3.0 48 363.9 600 0.0 15.0 54.1 12
11/01/2019 14:20 3.2 49 347.2 600 0.0 14.1 50.6 16
11/01/2019 14:30 3.2 50 330.0 600 0.0 14.7 52.8 11
11/01/2019 14:40 3.2 51 314.0 600 0.0 12.9 46.4 15
11/01/2019 14:50 3.4 51 289.9 600 0.0 12.1 43.7 20
11/01/2019 15:00 3.1 51 284.5 600 0.0 12.5 45.0 15
11/01/2019 15:10 3.2 50 262.8 600 0.0 11.9 42.9 13
11/01/2019 15:20 3.3 49 246.6 600 0.0 12.9 46.4 17
11/01/2019 15:30 3.1 50 246.7 600 0.0 12.5 44.8 15
11/01/2019 15:40 3.4 50 221.3 600 0.0 11.5 41.4 15
11/01/2019 15:50 3.1 50 183.3 600 0.0 12.1 43.4 13
11/01/2019 16:00 2.9 51 138.9 600 0.0 11.6 41.6 14
11/01/2019 16:10 2.5 52 100.6 600 0.0 10.9 39.3 14
11/01/2019 16:20 2.3 52 70.6 564 0.0 11.6 41.9 13
11/01/2019 16:30 2.0 53 47.8 600 0.0 12.3 44.1 15
11/01/2019 16:40 2.2 53 26.5 206 0.0 12.7 45.5 20
11/01/2019 16:50 1.9 53 0.0 0 0.0 12.3 44.3 19
11/01/2019 17:00 1.8 54 0.0 0 0.0 12.1 43.7 18
11/01/2019 17:10 1.7 54 0.0 0 0.0 11.9 42.8 18
11/01/2019 17:20 1.5 54 0.0 0 0.0 12.6 45.2 13
11/01/2019 17:30 1.5 54 0.0 0 0.0 12.4 44.5 14
11/01/2019 17:40 1.4 55 0.0 0 0.0 11.4 41.2 14
11/01/2019 17:50 1.4 55 0.0 0 0.0 12.5 45.0 11
11/01/2019 18:00 1.2 54 0.0 0 0.0 12.7 45.7 11
11/01/2019 18:10 1.1 54 0.0 0 0.0 12.7 45.8 13
11/01/2019 18:20 1.0 55 0.0 0 0.0 12.9 46.4 13
11/01/2019 18:30 0.9 55 0.0 0 0.0 12.7 45.9 13
11/01/2019 18:40 0.9 56 0.0 0 0.0 12.6 45.3 15
11/01/2019 18:50 0.9 56 0.0 0 0.0 12.8 46.0 15
11/01/2019 19:00 1.0 56 0.0 0 0.0 13.5 48.7 14
11/01/2019 19:10 1.0 57 0.0 0 0.0 13.6 48.9 15
11/01/2019 19:20 1.0 57 0.0 0 0.0 13.3 47.9 13
11/01/2019 19:30 1.0 58 0.0 0 0.0 12.9 46.5 16
11/01/2019 19:40 1.1 58 0.0 0 0.0 13.1 47.3 20
11/01/2019 19:50 1.2 58 0.0 0 0.0 12.7 45.8 20
11/01/2019 20:00 1.1 59 0.0 0 0.0 12.3 44.3 19
11/01/2019 20:10 1.1 59 0.0 0 0.0 11.3 40.8 19
11/01/2019 20:20 1.1 60 0.0 0 0.0 10.3 36.9 18
11/01/2019 20:30 1.1 61 0.0 0 0.0 10.5 37.9 19
11/01/2019 20:40 1.0 62 0.0 0 0.0 10.7 38.5 19
11/01/2019 20:50 1.0 63 0.0 0 0.0 10.7 38.6 20
11/01/2019 21:00 1.1 65 0.0 0 0.0 10.3 37.0 18
11/01/2019 21:10 1.1 67 0.0 0 0.0 10.4 37.4 18
11/01/2019 21:20 0.9 68 0.0 0 0.0 8.8 31.5 22
11/01/2019 21:30 0.7 69 0.0 0 0.0 9.2 33.0 22
11/01/2019 21:40 0.8 69 0.0 0 0.0 9.4 33.8 26
11/01/2019 21:50 0.8 69 0.0 0 0.0 9.2 33.1 31
11/01/2019 22:00 0.9 69 0.0 0 0.0 9.3 33.4 35
11/01/2019 22:10 0.9 70 0.0 0 0.0 8.5 30.6 38
11/01/2019 22:20 0.9 70 0.0 0 0.0 8.7 31.3 37
11/01/2019 22:30 0.8 71 0.0 0 0.0 7.9 28.4 36
11/01/2019 22:40 0.7 71 0.0 0 0.0 7.0 25.2 29
11/01/2019 22:50 0.5 72 0.0 0 0.0 7.3 26.4 32
11/01/2019 23:00 0.7 73 0.0 0 0.0 6.7 24.0 32
11/01/2019 23:10 0.6 74 0.0 0 0.0 6.0 21.6 26
11/01/2019 23:20 0.6 74 0.0 0 0.0 6.3 22.5 33
11/01/2019 23:30 0.6 74 0.0 0 0.0 5.9 21.2 32
11/01/2019 23:40 0.8 75 0.0 0 0.0 6.0 21.6 24
11/01/2019 23:50 1.1 74 0.0 0 0.0 6.9 24.8 23
Anterior Página 1 de 1 Siguiente

NOTA: Tipo de datos según el color:
   - Valores diarios o 10 minutos correctos
   - Valores diarios calculados a partir de un número de datos 10 minutos menor que 144 y mayor que 120, o de un número de datos semihorarios menor que 48 y mayor que 40 (caso de las estaciones de Riegos de Navarra y del MARM)
   - Valores diez minutos estimados


Contacto        Enlaces        Aviso legal